Terminal Aerodrome Forecast
Issued by NWS

Home | Current Version | Previous Version | Text Only | Print | Product List | Glossary On
Versions: 1 2 3 4 5 6 7 8 9 10 11 12 13 14 15 16
000
FTUS44 KHGX 240520
TAFSGR
TAF
KSGR 240520Z 2406/2506 15006KT P6SM SKC
     FM241400 21005KT P6SM SCT025
     FM242000 16008KT P6SM SCT050 SCT250
     FM250000 17005KT P6SM SCT250=

USA.gov is the U.S. government's official web portal to all federal, state and local government web resources and services.